Terminal Aerodrome Forecast
Issued by NWS Greer, SC

Home | Current Version | Previous Version | Text Only | Print | Product List | Glossary On
Versions: 1 2 3 4 5 6 7 8 9 10 11 12 13 14 15 16 17 18 19 20 21
000
FTUS42 KGSP 202101 AAA
TAFCLT
TAF AMD
KCLT 202101Z 2021/2118 10007KT P6SM FEW070 FEW250
     FM210900 04003KT 6SM BR FEW250
     FM211600 12005KT P6SM FEW045 FEW250=

USA.gov is the U.S. government's official web portal to all federal, state and local government web resources and services.